createdAt,value
2018-04-16T00:01:35.543Z,3.50
2018-04-16T00:04:03.064Z,3.33
2018-04-16T00:06:30.565Z,3.37
2018-04-16T00:08:58.069Z,3.40
2018-04-16T00:11:25.587Z,2.70
2018-04-16T00:13:53.088Z,3.37
2018-04-16T00:16:20.620Z,3.10
2018-04-16T00:18:48.117Z,3.40
2018-04-16T00:21:15.640Z,3.70
2018-04-16T00:23:43.908Z,2.70
2018-04-16T00:26:12.196Z,3.33
2018-04-16T00:28:39.687Z,3.40
2018-04-16T00:31:07.976Z,3.17
2018-04-16T00:33:41.107Z,4.20
2018-04-16T00:36:14.388Z,3.67
2018-04-16T00:38:47.585Z,3.60
2018-04-16T00:41:20.817Z,3.17
2018-04-16T00:43:54.073Z,3.30
2018-04-16T00:46:27.360Z,4.27
2018-04-16T00:49:00.546Z,4.17
2018-04-16T00:51:33.857Z,3.80
2018-04-16T00:54:24.739Z,3.80
2018-04-16T00:56:57.955Z,4.90
2018-04-16T00:59:31.066Z,4.00
2018-04-16T01:02:04.188Z,3.47
2018-04-16T01:04:37.384Z,3.90
2018-04-16T01:07:10.648Z,4.03
2018-04-16T01:09:44.662Z,4.40
2018-04-16T01:12:18.511Z,4.57
2018-04-16T01:14:51.723Z,4.83
2018-04-16T01:17:24.880Z,4.60
2018-04-16T01:19:58.201Z,5.00
2018-04-16T01:22:32.124Z,4.70
2018-04-16T01:25:06.107Z,4.40
2018-04-16T01:27:39.260Z,4.53
2018-04-16T01:30:13.244Z,4.53
2018-04-16T01:32:46.520Z,4.70
2018-04-16T01:35:20.567Z,4.73
2018-04-16T01:37:53.723Z,4.73
2018-04-16T01:40:27.623Z,4.80
2018-04-16T01:43:00.891Z,4.80
2018-04-16T01:45:34.162Z,4.70
2018-04-16T01:48:07.398Z,4.97
2018-04-16T01:50:40.656Z,5.27
2018-04-16T01:53:14.737Z,5.63
2018-04-16T01:55:48.047Z,5.33
2018-04-16T01:58:21.330Z,5.40
2018-04-16T02:00:54.558Z,5.80
2018-04-16T02:03:27.806Z,5.53
2018-04-16T02:06:01.854Z,6.30
2018-04-16T02:08:35.052Z,7.53
2018-04-16T02:11:08.290Z,7.50
2018-04-16T02:13:41.517Z,8.30
2018-04-16T02:16:14.691Z,8.00
2018-04-16T02:18:48.020Z,8.20
2018-04-16T02:21:21.117Z,8.97
2018-04-16T02:23:54.395Z,7.80
2018-04-16T02:26:27.622Z,7.73
2018-04-16T02:29:00.915Z,7.83
2018-04-16T02:31:34.115Z,9.80
2018-04-16T02:34:07.309Z,10.87
2018-04-16T02:36:40.771Z,12.00
2018-04-16T02:39:13.892Z,10.97
2018-04-16T02:41:47.838Z,11.30
2018-04-16T02:44:21.118Z,12.03
2018-04-16T02:46:55.131Z,10.90
2018-04-16T02:49:44.752Z,11.53
2018-04-16T02:52:17.900Z,11.63
2018-04-16T02:54:51.042Z,11.63
2018-04-16T02:57:25.063Z,11.00
2018-04-16T02:59:59.111Z,10.60
2018-04-16T03:02:32.143Z,10.80
2018-04-16T03:05:05.461Z,11.20
2018-04-16T03:10:46.465Z,12.67
2018-04-16T03:13:19.598Z,12.73
2018-04-16T03:15:52.763Z,11.90
2018-04-16T03:18:25.847Z,12.60
2018-04-16T03:20:59.002Z,12.70
2018-04-16T03:23:45.309Z,14.10
2018-04-16T03:26:18.415Z,13.50
2018-04-16T03:28:51.484Z,14.70
2018-04-16T03:31:24.751Z,15.20
2018-04-16T03:33:58.710Z,15.17
2018-04-16T03:39:43.483Z,15.23
2018-04-16T03:42:17.524Z,16.87
2018-04-16T03:44:50.610Z,15.83
2018-04-16T03:47:24.528Z,14.97
2018-04-16T03:49:57.796Z,15.40
2018-04-16T03:52:30.917Z,13.63
2018-04-16T03:55:01.049Z,14.83
2018-04-16T03:57:28.558Z,15.70
2018-04-16T03:59:56.847Z,13.70
2018-04-16T04:02:25.098Z,14.20
2018-04-16T04:04:52.598Z,14.90
2018-04-16T04:07:20.889Z,14.30
2018-04-16T04:09:49.137Z,14.17
2018-04-16T04:12:16.628Z,14.13
2018-04-16T04:14:44.158Z,13.40
2018-04-16T04:17:11.651Z,12.30
2018-04-16T04:19:39.165Z,12.40
2018-04-16T04:22:07.419Z,13.07
2018-04-16T04:24:46.854Z,11.33
2018-04-16T04:27:26.237Z,11.60
2018-04-16T04:30:05.597Z,13.97
2018-04-16T04:32:33.845Z,14.70
2018-04-16T04:35:01.329Z,16.13
2018-04-16T04:37:28.859Z,15.90
2018-04-16T04:39:56.363Z,13.97
2018-04-16T04:42:23.844Z,16.37
2018-04-16T04:44:51.376Z,14.30
2018-04-16T04:47:18.865Z,19.10
2018-04-16T04:49:46.349Z,15.27
2018-04-16T04:52:13.888Z,18.00
2018-04-16T04:54:41.394Z,18.63
2018-04-16T04:57:08.915Z,19.27
2018-04-16T04:59:36.403Z,19.27
2018-04-16T05:02:07.455Z,29.57
2018-04-16T05:04:34.985Z,29.90
2018-04-16T05:07:03.247Z,23.97
2018-04-16T05:09:30.751Z,23.73
2018-04-16T05:11:58.261Z,21.30
2018-04-16T05:14:25.751Z,22.97
2018-04-16T05:16:53.246Z,23.30
2018-04-16T05:19:21.551Z,25.50
2018-04-16T05:21:49.802Z,22.20
2018-04-16T05:24:17.303Z,20.77
2018-04-16T05:26:45.595Z,26.10
2018-04-16T05:29:13.088Z,31.07
2018-04-16T05:31:40.582Z,33.80
2018-04-16T05:34:08.102Z,27.73
2018-04-16T05:36:36.358Z,33.77
2018-04-16T05:39:03.855Z,36.60
2018-04-16T05:41:32.164Z,34.70
2018-04-16T05:43:59.651Z,30.50
2018-04-16T05:46:28.318Z,32.97
2018-04-16T05:48:55.847Z,30.40
2018-04-16T05:51:23.348Z,28.70
2018-04-16T05:53:51.605Z,29.73
2018-04-16T05:56:19.114Z,31.13
2018-04-16T05:58:47.375Z,32.17
2018-04-16T06:01:14.910Z,31.23
2018-04-16T06:03:42.427Z,30.60
2018-04-16T06:06:09.947Z,29.00
2018-04-16T06:08:37.441Z,29.67
2018-04-16T06:11:04.970Z,31.10
2018-04-16T06:13:32.511Z,27.57
2018-04-16T06:16:00.003Z,26.83
2018-04-16T06:18:27.500Z,26.97
2018-04-16T06:20:54.982Z,29.03
2018-04-16T06:23:22.516Z,26.60
2018-04-16T06:25:50.002Z,26.33
2018-04-16T06:28:17.507Z,22.47
2018-04-16T06:30:45.044Z,23.90
2018-04-16T06:33:12.538Z,23.40
2018-04-16T06:35:40.030Z,22.50
2018-04-16T06:38:07.574Z,24.40
2018-04-16T06:40:35.063Z,22.57
2018-04-16T06:43:02.557Z,22.10
2018-04-16T06:45:30.073Z,22.47
2018-04-16T06:47:57.557Z,22.40
2018-04-16T06:50:25.034Z,21.80
2018-04-16T06:52:52.571Z,19.47
2018-04-16T06:55:20.053Z,18.87
2018-04-16T06:57:47.537Z,15.33
2018-04-16T07:00:15.071Z,12.20
2018-04-16T07:02:42.562Z,11.90
2018-04-16T07:05:10.092Z,10.93
2018-04-16T07:07:38.356Z,11.23
2018-04-16T07:10:05.909Z,9.80
2018-04-16T07:12:34.163Z,10.17
2018-04-16T07:15:01.648Z,10.03
2018-04-16T07:17:29.151Z,10.13
2018-04-16T07:19:56.681Z,9.77
2018-04-16T07:22:24.177Z,10.63
2018-04-16T07:24:51.661Z,10.07
2018-04-16T07:27:19.229Z,15.27
2018-04-16T07:29:46.689Z,9.50
2018-04-16T07:32:14.166Z,9.60
2018-04-16T07:34:41.693Z,10.30
2018-04-16T07:37:09.181Z,9.33
2018-04-16T07:39:36.671Z,9.33
2018-04-16T07:42:04.186Z,9.00
2018-04-16T07:44:31.669Z,8.40
2018-04-16T07:46:59.908Z,7.80
2018-04-16T07:49:27.417Z,6.97
2018-04-16T07:51:55.663Z,6.20
2018-04-16T07:54:23.494Z,6.30
2018-04-16T07:56:51.748Z,6.07
2018-04-16T07:59:19.235Z,6.40
2018-04-16T08:01:47.522Z,5.93
2018-04-16T08:04:15.011Z,14.40
2018-04-16T08:06:42.530Z,9.93
2018-04-16T08:09:10.019Z,5.43
2018-04-16T08:11:37.508Z,5.97
2018-04-16T08:14:05.763Z,5.30
2018-04-16T08:16:33.278Z,5.23
2018-04-16T08:19:01.528Z,5.50
2018-04-16T08:21:29.017Z,5.73
2018-04-16T08:23:57.305Z,4.70
2018-04-16T08:26:24.792Z,5.73
2018-04-16T08:28:53.095Z,5.57
2018-04-16T08:31:20.569Z,5.53
2018-04-16T08:33:48.049Z,4.93
2018-04-16T08:36:15.571Z,4.90
2018-04-16T08:38:43.045Z,4.60
2018-04-16T08:41:10.535Z,5.30
2018-04-16T08:43:38.070Z,5.57
2018-04-16T08:46:05.553Z,4.43
2018-04-16T08:48:33.811Z,4.43
2018-04-16T08:51:01.332Z,5.40
2018-04-16T08:53:29.595Z,5.60
2018-04-16T08:55:57.083Z,5.20
2018-04-16T08:58:25.382Z,5.37
2018-04-16T09:00:52.884Z,5.20
2018-04-16T09:03:20.372Z,5.90
2018-04-16T09:05:47.886Z,5.50
2018-04-16T09:08:16.134Z,4.27
2018-04-16T09:10:43.619Z,5.20
2018-04-16T09:13:11.130Z,5.00
2018-04-16T09:15:38.606Z,4.40
2018-04-16T09:18:06.098Z,4.60
2018-04-16T09:20:33.619Z,4.40
2018-04-16T09:23:01.868Z,4.30
2018-04-16T09:25:29.351Z,4.57
2018-04-16T09:27:56.894Z,4.70
2018-04-16T09:30:24.386Z,4.63
2018-04-16T09:32:51.874Z,4.90
2018-04-16T09:35:19.385Z,5.00
2018-04-16T09:37:46.860Z,4.13
2018-04-16T09:40:14.363Z,4.20
2018-04-16T09:42:41.894Z,4.93
2018-04-16T09:45:09.387Z,4.47
2018-04-16T09:47:36.875Z,4.80
2018-04-16T09:50:04.402Z,5.13
2018-04-16T09:52:31.893Z,4.50
2018-04-16T09:54:59.379Z,4.60
2018-04-16T09:57:26.893Z,4.33
2018-04-16T09:59:55.155Z,4.30
2018-04-16T10:02:25.571Z,4.80
2018-04-16T10:04:53.081Z,4.30
2018-04-16T10:07:21.333Z,4.23
2018-04-16T10:09:48.851Z,4.07
2018-04-16T10:12:17.094Z,3.77
2018-04-16T10:14:44.609Z,3.23
2018-04-16T10:17:12.850Z,3.87
2018-04-16T10:19:40.329Z,3.47
2018-04-16T10:22:07.857Z,3.73
2018-04-16T10:24:35.343Z,3.13
2018-04-16T10:27:02.826Z,3.67
2018-04-16T10:29:30.347Z,3.40
2018-04-16T10:31:58.608Z,3.73
2018-04-16T10:34:26.091Z,3.23
2018-04-16T10:36:53.605Z,3.13
2018-04-16T10:39:21.081Z,3.93
2018-04-16T10:41:48.561Z,3.60
2018-04-16T10:44:16.069Z,3.50
2018-04-16T10:46:43.559Z,3.27
2018-04-16T10:49:11.038Z,3.13
2018-04-16T10:51:38.545Z,3.10
2018-04-16T10:54:06.031Z,3.50
2018-04-16T10:56:33.513Z,2.63
2018-04-16T10:59:01.023Z,2.50
2018-04-16T11:01:28.493Z,2.40
2018-04-16T11:03:55.980Z,2.20
2018-04-16T11:06:23.489Z,2.63
2018-04-16T11:08:50.975Z,2.23
2018-04-16T11:11:19.225Z,2.23
2018-04-16T11:13:46.750Z,2.30
2018-04-16T11:16:14.233Z,2.17
2018-04-16T11:18:41.715Z,2.40
2018-04-16T11:21:09.246Z,2.57
2018-04-16T11:23:37.495Z,2.13
2018-04-16T11:26:04.977Z,2.60
2018-04-16T11:28:32.491Z,2.27
2018-04-16T11:30:59.979Z,2.07
2018-04-16T11:33:27.505Z,2.10
2018-04-16T11:35:54.989Z,2.13
2018-04-16T11:38:23.239Z,2.10
2018-04-16T11:40:50.753Z,1.80
2018-04-16T11:43:19.004Z,1.60
2018-04-16T11:45:46.494Z,1.80
2018-04-16T11:48:14.001Z,2.03
2018-04-16T11:50:41.495Z,1.83
2018-04-16T11:53:09.010Z,1.60
2018-04-16T11:55:37.247Z,2.00
2018-04-16T11:58:04.730Z,1.70
2018-04-16T12:00:32.259Z,1.80
2018-04-16T12:02:59.766Z,1.63
2018-04-16T12:05:27.255Z,1.73
2018-04-16T12:07:54.765Z,1.50
2018-04-16T12:10:23.076Z,2.00
2018-04-16T12:12:50.505Z,1.43
2018-04-16T12:15:18.017Z,1.47
2018-04-16T12:17:45.510Z,2.63
2018-04-16T12:20:13.002Z,2.03
2018-04-16T12:22:40.527Z,3.40
2018-04-16T12:25:08.008Z,2.00
2018-04-16T12:27:35.482Z,1.70
2018-04-16T12:30:03.023Z,1.43
2018-04-16T12:32:30.508Z,1.40
2018-04-16T12:34:57.985Z,1.83
2018-04-16T12:37:25.493Z,2.53
2018-04-16T12:39:52.975Z,2.50
2018-04-16T12:42:20.489Z,2.73
2018-04-16T12:44:48.019Z,2.83
2018-04-16T12:47:16.283Z,2.83
2018-04-16T12:49:43.767Z,1.80
2018-04-16T12:52:11.368Z,2.00
2018-04-16T12:54:38.949Z,3.33
2018-04-16T12:57:06.443Z,2.57
2018-04-16T12:59:33.963Z,2.80
2018-04-16T13:02:01.463Z,2.20
2018-04-16T13:04:28.955Z,2.33
2018-04-16T13:06:56.495Z,2.40
2018-04-16T13:09:23.986Z,2.60
2018-04-16T13:11:51.487Z,1.83
2018-04-16T13:14:19.011Z,1.90
2018-04-16T13:16:46.499Z,1.50
2018-04-16T13:19:14.035Z,1.37
2018-04-16T13:21:42.287Z,1.67
2018-04-16T13:24:09.777Z,1.53
2018-04-16T13:26:37.328Z,1.70
2018-04-16T13:29:04.813Z,1.43
2018-04-16T13:31:32.345Z,1.47
2018-04-16T13:33:59.830Z,1.50
2018-04-16T13:36:27.371Z,1.10
2018-04-16T13:38:55.638Z,1.50
2018-04-16T13:41:23.135Z,1.90
2018-04-16T13:43:50.617Z,1.20
2018-04-16T13:46:18.137Z,3.17
2018-04-16T13:48:46.389Z,14.50
2018-04-16T13:51:13.862Z,3.03
2018-04-16T13:53:41.374Z,1.53
2018-04-16T13:56:09.631Z,1.67
2018-04-16T13:58:37.147Z,2.03
2018-04-16T14:01:04.619Z,1.50
2018-04-16T14:03:32.106Z,1.70
2018-04-16T14:05:59.621Z,1.83
2018-04-16T14:08:27.093Z,2.03
2018-04-16T14:10:54.615Z,1.90
2018-04-16T14:13:22.094Z,1.67
2018-04-16T14:15:49.593Z,1.30
2018-04-16T14:18:17.131Z,1.67
2018-04-16T14:20:44.639Z,1.63
2018-04-16T14:23:12.120Z,1.47
2018-04-16T14:25:39.648Z,3.30
2018-04-16T14:28:07.127Z,1.77
2018-04-16T14:30:34.602Z,1.60
2018-04-16T14:33:02.110Z,1.27
2018-04-16T14:35:30.357Z,1.30
2018-04-16T14:37:57.833Z,1.70
2018-04-16T14:40:25.349Z,1.10
2018-04-16T14:42:53.599Z,11.30
2018-04-16T14:45:21.074Z,4.53
2018-04-16T14:47:48.582Z,1.50
2018-04-16T14:50:16.072Z,1.30
2018-04-16T14:52:43.550Z,2.03
2018-04-16T14:55:11.075Z,1.60
2018-04-16T14:57:39.329Z,1.90
2018-04-16T15:00:06.854Z,1.37
2018-04-16T15:02:34.330Z,1.63
2018-04-16T15:05:01.814Z,1.30
2018-04-16T15:07:29.374Z,1.23
2018-04-16T15:09:56.863Z,1.43
2018-04-16T15:12:24.342Z,1.27
2018-04-16T15:14:51.874Z,1.47
2018-04-16T15:17:19.352Z,1.43
2018-04-16T15:19:46.833Z,1.30
2018-04-16T15:22:14.352Z,1.40
2018-04-16T15:24:41.849Z,1.20
2018-04-16T15:27:10.108Z,1.77
2018-04-16T15:29:37.626Z,1.47
2018-04-16T15:32:05.110Z,1.23
2018-04-16T15:34:32.590Z,1.40
2018-04-16T15:37:00.115Z,1.43
2018-04-16T15:39:27.622Z,1.70
2018-04-16T15:41:55.097Z,1.70
2018-04-16T15:44:22.619Z,1.50
2018-04-16T15:46:50.875Z,1.57
2018-04-16T15:49:18.366Z,1.93
2018-04-16T15:51:45.899Z,1.20
2018-04-16T15:54:13.370Z,1.70
2018-04-16T15:56:40.866Z,1.30
2018-04-16T15:59:08.395Z,1.83
2018-04-16T16:01:35.888Z,3.10
2018-04-16T16:04:03.373Z,15.40
2018-04-16T16:06:30.902Z,5.73
2018-04-16T16:08:58.393Z,2.67
2018-04-16T16:11:25.875Z,1.70
2018-04-16T16:13:53.407Z,1.53
2018-04-16T16:16:20.899Z,1.60
2018-04-16T16:18:48.396Z,1.30
2018-04-16T16:21:15.914Z,1.40
2018-04-16T16:23:43.394Z,1.47
2018-04-16T16:26:10.867Z,2.20
2018-04-16T16:28:38.436Z,1.40
2018-04-16T16:31:06.663Z,1.80
2018-04-16T16:33:34.138Z,2.10
2018-04-16T16:36:01.663Z,1.70
2018-04-16T16:38:29.145Z,2.17
2018-04-16T16:40:56.631Z,2.37
2018-04-16T16:43:24.156Z,1.20
2018-04-16T16:45:51.649Z,1.40
2018-04-16T16:48:19.272Z,2.20
2018-04-16T16:50:46.753Z,1.40
2018-04-16T16:53:14.997Z,2.13
2018-04-16T16:55:42.524Z,1.87
2018-04-16T16:58:10.783Z,1.70
2018-04-16T17:00:38.266Z,1.60
2018-04-16T17:03:06.551Z,1.50
2018-04-16T17:05:34.039Z,1.30
2018-04-16T17:08:01.557Z,1.60
2018-04-16T17:10:29.067Z,2.00
2018-04-16T17:12:57.322Z,1.40
2018-04-16T17:15:24.805Z,2.83
2018-04-16T17:17:52.327Z,1.63
2018-04-16T17:20:19.823Z,1.70
2018-04-16T17:22:47.301Z,1.70
2018-04-16T17:25:14.813Z,1.17
2018-04-16T17:27:43.068Z,1.40
2018-04-16T17:30:10.588Z,20.47
2018-04-16T17:32:38.067Z,9.33
2018-04-16T17:35:05.576Z,3.60
2018-04-16T17:37:33.115Z,1.80
2018-04-16T17:40:00.596Z,3.90
2018-04-16T17:42:28.402Z,3.50
2018-04-16T17:44:55.905Z,2.60
2018-04-16T17:47:24.153Z,2.33
2018-04-16T17:49:51.633Z,2.23
2018-04-16T17:52:19.166Z,2.00
2018-04-16T17:54:46.660Z,2.60
2018-04-16T17:57:14.147Z,2.50
2018-04-16T17:59:41.678Z,2.60
2018-04-16T18:02:09.180Z,1.70
2018-04-16T18:04:36.711Z,1.80
2018-04-16T18:07:04.194Z,2.10
2018-04-16T18:09:31.682Z,2.30
2018-04-16T18:11:59.155Z,2.70
2018-04-16T18:14:26.674Z,2.23
2018-04-16T18:16:54.162Z,2.77
2018-04-16T18:19:21.642Z,2.43
2018-04-16T18:21:49.163Z,2.50
2018-04-16T18:24:17.418Z,2.10
2018-04-16T18:26:44.908Z,2.90
2018-04-16T18:29:12.438Z,24.60
2018-04-16T18:31:39.938Z,25.37
2018-04-16T18:34:07.436Z,8.20
2018-04-16T18:36:35.734Z,3.40
2018-04-16T18:39:03.999Z,2.70
2018-04-16T18:41:31.496Z,2.70
2018-04-16T18:43:59.019Z,2.63
2018-04-16T18:46:26.508Z,3.03
2018-04-16T18:48:53.998Z,6.90
2018-04-16T18:51:22.291Z,11.70
2018-04-16T18:53:50.565Z,9.17
2018-04-16T18:56:18.813Z,5.70
2018-04-16T18:58:46.343Z,3.40
2018-04-16T19:01:14.622Z,2.53
2018-04-16T19:03:42.104Z,2.20
2018-04-16T19:06:09.639Z,2.30
2018-04-16T19:08:37.142Z,2.50
2018-04-16T19:11:05.389Z,3.00
2018-04-16T19:13:32.908Z,2.43
2018-04-16T19:16:00.431Z,1.83
2018-04-16T19:18:27.892Z,2.83
2018-04-16T19:21:01.081Z,2.60
2018-04-16T19:23:28.574Z,8.70
2018-04-16T19:25:56.086Z,7.43
2018-04-16T19:28:24.333Z,2.77
2018-04-16T19:30:51.914Z,2.70
2018-04-16T19:33:25.039Z,2.57
2018-04-16T19:35:53.309Z,3.03
2018-04-16T19:38:20.785Z,3.70
2018-04-16T19:40:48.280Z,3.97
2018-04-16T19:43:15.806Z,3.70
2018-04-16T19:45:43.294Z,3.20
2018-04-16T19:48:10.779Z,2.87
2018-04-16T19:50:39.070Z,2.90
2018-04-16T19:53:07.337Z,3.10
2018-04-16T19:55:40.504Z,4.20
2018-04-16T19:58:13.702Z,2.50
2018-04-16T20:00:41.213Z,3.53
2018-04-16T20:03:14.333Z,3.13
2018-04-16T20:05:42.626Z,3.30
2018-04-16T20:08:10.147Z,47.70
2018-04-16T20:10:37.630Z,63.47
2018-04-16T20:13:05.167Z,11.80
2018-04-16T20:15:32.649Z,5.30
2018-04-16T20:18:00.126Z,3.70
2018-04-16T20:20:27.660Z,4.30
2018-04-16T20:22:55.152Z,3.70
2018-04-16T20:25:22.644Z,3.80
2018-04-16T20:27:50.163Z,4.70
2018-04-16T20:30:18.420Z,4.67
2018-04-16T20:32:45.914Z,4.20
2018-04-16T20:35:14.190Z,4.80
2018-04-16T20:37:41.676Z,4.80
2018-04-16T20:40:09.969Z,4.63
2018-04-16T20:42:38.221Z,4.23
2018-04-16T20:45:05.707Z,4.47
2018-04-16T20:47:33.228Z,5.43
2018-04-16T20:50:00.723Z,4.60
2018-04-16T20:52:28.207Z,3.63
2018-04-16T20:54:55.724Z,3.87
2018-04-16T20:57:23.219Z,4.07
2018-04-16T20:59:50.722Z,3.90
2018-04-16T21:02:18.202Z,3.50
2018-04-16T21:04:45.685Z,4.20
2018-04-16T21:07:13.969Z,21.10
2018-04-16T21:09:42.218Z,34.53
2018-04-16T21:12:09.714Z,8.67
2018-04-16T21:14:37.276Z,4.40
2018-04-16T21:17:04.769Z,3.90
2018-04-16T21:19:33.019Z,3.30
2018-04-16T21:22:00.542Z,3.60
2018-04-16T21:24:28.026Z,3.77
2018-04-16T21:26:55.505Z,3.37
2018-04-16T21:29:23.013Z,3.53
2018-04-16T21:31:50.489Z,3.90
2018-04-16T21:34:18.007Z,3.70
2018-04-16T21:36:45.493Z,3.87
2018-04-16T21:39:13.014Z,3.50
2018-04-16T21:41:41.283Z,3.97
2018-04-16T21:44:08.767Z,3.00
2018-04-16T21:46:36.295Z,4.63
2018-04-16T21:49:03.778Z,3.60
2018-04-16T21:51:31.250Z,4.00
2018-04-16T21:53:58.772Z,4.17
2018-04-16T21:56:26.284Z,3.90
2018-04-16T21:58:53.815Z,3.20
2018-04-16T22:01:21.308Z,3.50
2018-04-16T22:03:48.791Z,3.40
2018-04-16T22:06:16.399Z,3.53
2018-04-16T22:08:43.873Z,3.47
2018-04-16T22:11:11.412Z,3.80
2018-04-16T22:13:38.930Z,4.30
2018-04-16T22:16:07.178Z,3.87
2018-04-16T22:18:34.696Z,4.50
2018-04-16T22:21:02.186Z,6.33
2018-04-16T22:23:30.720Z,4.57
2018-04-16T22:25:58.206Z,4.77
2018-04-16T22:28:25.694Z,3.97
2018-04-16T22:30:53.986Z,4.30
2018-04-16T22:33:21.494Z,3.70
2018-04-16T22:35:48.998Z,3.97
2018-04-16T22:38:16.491Z,4.07
2018-04-16T22:40:45.770Z,3.80
2018-04-16T22:43:13.254Z,4.17
2018-04-16T22:45:40.752Z,4.83
2018-04-16T22:48:08.257Z,4.90
2018-04-16T22:50:35.732Z,4.50
2018-04-16T22:53:03.254Z,4.77
2018-04-16T22:55:31.505Z,5.73
2018-04-16T22:57:58.986Z,4.97
2018-04-16T23:00:26.506Z,5.70
2018-04-16T23:02:53.991Z,6.30
2018-04-16T23:05:21.492Z,5.30
2018-04-16T23:07:48.998Z,5.40
2018-04-16T23:10:17.263Z,6.40
2018-04-16T23:12:45.535Z,5.90
2018-04-16T23:15:13.051Z,6.60
2018-04-16T23:17:40.554Z,7.10
2018-04-16T23:20:08.038Z,5.37
2018-04-16T23:22:35.562Z,5.40
2018-04-16T23:25:03.049Z,5.37
2018-04-16T23:27:30.567Z,5.07
2018-04-16T23:29:58.068Z,5.83
2018-04-16T23:32:26.323Z,6.70
2018-04-16T23:34:53.846Z,6.20
2018-04-16T23:37:21.343Z,5.33
2018-04-16T23:39:48.821Z,6.03
2018-04-16T23:42:16.352Z,6.10
2018-04-16T23:44:43.839Z,6.67
2018-04-16T23:47:11.331Z,6.60
2018-04-16T23:49:38.846Z,6.53
2018-04-16T23:52:07.092Z,6.70
2018-04-16T23:54:34.603Z,6.47
2018-04-16T23:57:02.890Z,6.33
2018-04-16T23:59:31.144Z,6.73
